Terminal Aerodrome Forecast
Issued by NWS

Home | Current Version | Previous Version | Text Only | Print | Product List | Glossary Off
Versions: 1 2 3 4 5 6 7 8 9 10 11 12 13 14 15 16 17 18 19 20

000
FTUS43 KBIS 201100
TAFDIK
TAF
KDIK 201126Z 2012/2112 16008KT P6SM BKN100
     FM201500 16009KT P6SM -SHRA OVC070
      TEMPO 2019/2023 3SM TSRA BKN030CB OVC050
     FM202300 27009KT P6SM -SHRA OVC050
     FM210600 29007KT P6SM SCT060=

USA.gov is the U.S. government's official web portal to all federal, state and local government web resources and services.